createdAt,value
2023-09-03T00:02:22.080Z,55.58
2023-09-03T00:04:54.851Z,55.67
2023-09-03T00:07:27.781Z,55.61
2023-09-03T00:10:00.712Z,55.70
2023-09-03T00:12:33.494Z,55.61
2023-09-03T00:15:08.483Z,55.61
2023-09-03T00:17:41.574Z,55.71
2023-09-03T00:20:14.734Z,55.61
2023-09-03T00:22:47.498Z,55.54
2023-09-03T00:25:20.329Z,55.48
2023-09-03T00:27:53.364Z,55.39
2023-09-03T00:30:28.071Z,55.43
2023-09-03T00:33:01.177Z,55.44
2023-09-03T00:35:35.522Z,55.66
2023-09-03T00:38:08.608Z,55.78
2023-09-03T00:40:41.998Z,55.63
2023-09-03T00:43:15.248Z,55.61
2023-09-03T00:45:51.494Z,55.75
2023-09-03T00:48:28.186Z,55.54
2023-09-03T00:51:04.700Z,55.76
2023-09-03T00:53:39.152Z,56.35
2023-09-03T00:56:14.061Z,55.77
2023-09-03T00:58:50.986Z,55.95
2023-09-03T01:01:25.379Z,55.93
2023-09-03T01:03:58.571Z,55.73
2023-09-03T01:06:31.592Z,55.97
2023-09-03T01:09:04.652Z,55.78
2023-09-03T01:11:45.854Z,55.88
2023-09-03T01:14:34.312Z,55.67
2023-09-03T01:17:13.667Z,56.14
2023-09-03T01:19:59.199Z,56.06
2023-09-03T01:22:56.225Z,56.04
2023-09-03T01:25:50.093Z,55.98
2023-09-03T01:28:26.978Z,56.05
2023-09-03T01:31:03.314Z,55.74
2023-09-03T01:33:39.021Z,55.84
2023-09-03T01:36:12.814Z,55.72
2023-09-03T01:38:45.717Z,55.74
2023-09-03T01:41:19.467Z,55.77
2023-09-03T01:43:53.952Z,55.93
2023-09-03T01:46:39.134Z,56.05
2023-09-03T01:49:26.084Z,55.90
2023-09-03T01:52:11.155Z,55.97
2023-09-03T01:54:49.262Z,56.13
2023-09-03T01:57:27.452Z,55.92
2023-09-03T02:00:06.832Z,55.70
2023-09-03T02:02:50.939Z,55.83
2023-09-03T02:05:24.293Z,56.11
2023-09-03T02:07:57.757Z,56.09
2023-09-03T02:10:30.536Z,56.14
2023-09-03T02:13:03.244Z,55.91
2023-09-03T02:15:38.389Z,55.82
2023-09-03T02:18:11.180Z,56.09
2023-09-03T02:20:44.001Z,55.69
2023-09-03T02:23:17.326Z,56.13
2023-09-03T02:26:01.440Z,55.86
2023-09-03T02:28:36.104Z,55.74
2023-09-03T02:31:12.408Z,56.05
2023-09-03T02:33:45.741Z,55.95
2023-09-03T02:36:21.212Z,55.71
2023-09-03T02:39:00.748Z,55.86
2023-09-03T02:41:33.949Z,55.86
2023-09-03T02:44:08.292Z,55.95
2023-09-03T02:46:42.478Z,55.81
2023-09-03T02:49:16.086Z,55.81
2023-09-03T02:51:50.431Z,56.13
2023-09-03T02:54:23.481Z,55.51
2023-09-03T02:56:56.303Z,56.20
2023-09-03T02:59:30.206Z,55.96
2023-09-03T03:02:04.545Z,56.03
2023-09-03T03:04:37.332Z,55.79
2023-09-03T03:07:11.419Z,55.91
2023-09-03T03:09:44.147Z,55.72
2023-09-03T03:12:19.278Z,55.71
2023-09-03T03:14:52.150Z,55.68
2023-09-03T03:17:26.943Z,55.83
2023-09-03T03:20:00.335Z,56.16
2023-09-03T03:22:33.088Z,56.09
2023-09-03T03:25:06.846Z,55.96
2023-09-03T03:27:39.723Z,55.86
2023-09-03T03:30:14.475Z,55.70
2023-09-03T03:32:54.782Z,55.89
2023-09-03T03:35:28.642Z,55.48
2023-09-03T03:38:01.815Z,55.81
2023-09-03T03:40:34.550Z,55.67
2023-09-03T03:43:07.422Z,55.85
2023-09-03T03:45:40.213Z,55.68
2023-09-03T03:48:14.398Z,55.70
2023-09-03T03:50:48.021Z,55.73
2023-09-03T03:53:20.705Z,55.77
2023-09-03T03:56:00.946Z,56.12
2023-09-03T03:58:36.428Z,55.94
2023-09-03T04:01:15.182Z,56.06
2023-09-03T04:03:51.150Z,55.90
2023-09-03T04:06:23.995Z,55.74
2023-09-03T04:08:56.966Z,55.55
2023-09-03T04:11:29.704Z,55.75
2023-09-03T04:14:02.352Z,55.66
2023-09-03T04:16:36.050Z,55.79
2023-09-03T04:19:10.410Z,55.73
2023-09-03T04:21:43.148Z,55.81
2023-09-03T04:24:16.251Z,55.64
2023-09-03T04:26:49.145Z,55.62
2023-09-03T04:29:21.839Z,55.62
2023-09-03T04:31:54.899Z,55.06
2023-09-03T04:34:29.387Z,55.47
2023-09-03T04:37:03.243Z,55.69
2023-09-03T04:39:36.022Z,55.51
2023-09-03T04:42:09.066Z,55.35
2023-09-03T04:44:43.641Z,55.59
2023-09-03T04:47:16.413Z,55.73
2023-09-03T04:49:50.949Z,55.64
2023-09-03T04:52:23.762Z,55.64
2023-09-03T04:54:56.648Z,55.73
2023-09-03T04:57:30.033Z,55.37
2023-09-03T05:00:05.602Z,55.38
2023-09-03T05:02:38.672Z,55.50
2023-09-03T05:05:13.173Z,55.22
2023-09-03T05:07:48.189Z,55.54
2023-09-03T05:10:21.375Z,55.33
2023-09-03T05:12:54.210Z,55.57
2023-09-03T05:15:27.352Z,55.33
2023-09-03T05:18:01.750Z,55.35
2023-09-03T05:20:39.886Z,55.46
2023-09-03T05:23:13.681Z,55.38
2023-09-03T05:25:46.431Z,55.54
2023-09-03T05:28:19.462Z,55.49
2023-09-03T05:30:52.416Z,55.78
2023-09-03T05:33:25.344Z,55.53
2023-09-03T05:35:59.883Z,55.29
2023-09-03T05:38:32.969Z,55.36
2023-09-03T05:41:07.534Z,55.24
2023-09-03T05:43:40.939Z,55.66
2023-09-03T05:46:13.757Z,55.52
2023-09-03T05:48:46.571Z,55.61
2023-09-03T05:51:20.977Z,55.36
2023-09-03T05:53:54.670Z,55.66
2023-09-03T05:56:28.817Z,55.21
2023-09-03T05:59:06.536Z,55.23
2023-09-03T06:01:40.597Z,55.28
2023-09-03T06:04:16.310Z,55.40
2023-09-03T06:06:50.667Z,55.57
2023-09-03T06:09:23.653Z,55.74
2023-09-03T06:11:56.254Z,55.36
2023-09-03T06:14:28.952Z,55.43
2023-09-03T06:17:02.156Z,55.68
2023-09-03T06:19:35.037Z,55.35
2023-09-03T06:22:09.120Z,55.61
2023-09-03T06:24:41.806Z,55.45
2023-09-03T06:27:14.525Z,55.23
2023-09-03T06:29:47.259Z,55.41
2023-09-03T06:32:20.062Z,55.55
2023-09-03T06:34:52.935Z,55.64
2023-09-03T06:37:26.964Z,55.63
2023-09-03T06:40:00.316Z,55.57
2023-09-03T06:42:33.367Z,55.52
2023-09-03T06:45:07.783Z,55.40
2023-09-03T06:47:40.810Z,55.27
2023-09-03T06:50:13.765Z,55.21
2023-09-03T06:52:48.372Z,55.42
2023-09-03T06:55:21.800Z,55.50
2023-09-03T06:57:54.848Z,55.29
2023-09-03T07:00:28.220Z,55.30
2023-09-03T07:03:01.341Z,55.41
2023-09-03T07:05:34.532Z,55.19
2023-09-03T07:08:09.091Z,55.21
2023-09-03T07:10:41.900Z,55.02
2023-09-03T07:13:14.742Z,55.05
2023-09-03T07:15:48.441Z,55.28
2023-09-03T07:18:21.411Z,55.59
2023-09-03T07:21:05.859Z,55.69
2023-09-03T07:23:39.966Z,55.63
2023-09-03T07:26:12.920Z,55.05
2023-09-03T07:28:45.600Z,54.92
2023-09-03T07:31:19.996Z,54.75
2023-09-03T07:33:53.374Z,54.34
2023-09-03T07:36:25.962Z,54.19
2023-09-03T07:39:00.008Z,54.25
2023-09-03T07:41:33.428Z,54.35
2023-09-03T07:44:08.455Z,53.81
2023-09-03T07:46:41.197Z,56.18
2023-09-03T07:49:14.199Z,54.07
2023-09-03T07:51:46.974Z,53.68
2023-09-03T07:54:20.992Z,53.58
2023-09-03T07:56:55.618Z,53.71
2023-09-03T07:59:28.644Z,54.35
2023-09-03T08:02:01.954Z,55.10
2023-09-03T08:04:34.833Z,54.66
2023-09-03T08:07:07.976Z,54.74
2023-09-03T08:09:43.997Z,53.27
2023-09-03T08:12:16.849Z,53.71
2023-09-03T08:14:53.881Z,55.25
2023-09-03T08:17:31.222Z,54.09
2023-09-03T08:20:06.488Z,55.51
2023-09-03T08:22:39.629Z,54.41
2023-09-03T08:25:13.947Z,54.04
2023-09-03T08:27:47.914Z,54.32
2023-09-03T08:30:23.203Z,55.53
2023-09-03T08:32:56.245Z,54.50
2023-09-03T08:35:31.728Z,54.50
2023-09-03T08:38:05.674Z,55.26
2023-09-03T08:40:41.440Z,56.06
2023-09-03T08:43:18.118Z,55.83
2023-09-03T08:45:54.471Z,54.75
2023-09-03T08:48:29.380Z,54.88
2023-09-03T08:51:02.506Z,55.23
2023-09-03T08:53:36.498Z,55.62
2023-09-03T08:56:11.149Z,55.15
2023-09-03T08:58:43.923Z,54.83
2023-09-03T09:01:19.503Z,55.15
2023-09-03T09:03:55.543Z,53.97
2023-09-03T09:06:30.640Z,55.00
2023-09-03T09:09:05.075Z,55.44
2023-09-03T09:11:41.532Z,53.43
2023-09-03T09:14:21.683Z,52.71
2023-09-03T09:16:54.442Z,54.98
2023-09-03T09:19:27.159Z,54.19
2023-09-03T09:21:59.973Z,53.21
2023-09-03T09:24:32.954Z,55.79
2023-09-03T09:27:15.447Z,53.68
2023-09-03T09:29:49.005Z,53.65
2023-09-03T09:32:24.592Z,52.77
2023-09-03T09:34:57.578Z,52.98
2023-09-03T09:37:39.676Z,52.14
2023-09-03T09:40:15.270Z,53.98
2023-09-03T09:42:55.841Z,52.41
2023-09-03T09:45:29.302Z,52.93
2023-09-03T09:48:07.489Z,52.21
2023-09-03T09:50:43.368Z,50.51
2023-09-03T09:53:25.571Z,50.84
2023-09-03T09:56:00.573Z,50.23
2023-09-03T09:58:41.418Z,51.77
2023-09-03T10:01:14.741Z,50.37
2023-09-03T10:03:49.318Z,51.13
2023-09-03T10:06:23.997Z,52.13
2023-09-03T10:08:56.787Z,51.09
2023-09-03T10:11:29.366Z,51.55
2023-09-03T10:14:03.731Z,48.89
2023-09-03T10:16:40.123Z,48.94
2023-09-03T10:19:18.499Z,48.82
2023-09-03T10:21:54.952Z,48.84
2023-09-03T10:24:29.038Z,48.79
2023-09-03T10:27:06.460Z,49.70
2023-09-03T10:29:43.592Z,49.03
2023-09-03T10:32:18.476Z,47.97
2023-09-03T10:34:51.517Z,47.75
2023-09-03T10:37:37.854Z,47.31
2023-09-03T10:40:21.908Z,47.16
2023-09-03T10:42:56.300Z,47.63
2023-09-03T10:45:30.608Z,47.34
2023-09-03T10:48:04.758Z,46.72
2023-09-03T10:50:49.522Z,47.66
2023-09-03T10:53:39.160Z,46.28
2023-09-03T10:56:16.508Z,46.15
2023-09-03T10:58:55.646Z,46.70
2023-09-03T11:01:32.277Z,46.68
2023-09-03T11:04:06.159Z,45.89
2023-09-03T11:06:40.067Z,46.33
2023-09-03T11:09:26.119Z,46.60
2023-09-03T11:12:03.371Z,45.86
2023-09-03T11:14:36.491Z,46.19
2023-09-03T11:17:15.032Z,47.18
2023-09-03T11:19:48.131Z,46.32
2023-09-03T11:22:22.459Z,45.36
2023-09-03T11:24:55.221Z,45.88
2023-09-03T11:27:27.939Z,46.32
2023-09-03T11:30:10.754Z,44.96
2023-09-03T11:32:45.336Z,45.24
2023-09-03T11:35:18.321Z,45.64
2023-09-03T11:37:52.743Z,45.77
2023-09-03T11:40:27.819Z,45.61
2023-09-03T11:43:02.245Z,44.90
2023-09-03T11:45:35.226Z,44.83
2023-09-03T11:48:10.270Z,44.86
2023-09-03T11:50:43.738Z,44.24
2023-09-03T11:53:16.920Z,43.58
2023-09-03T11:55:54.960Z,45.09
2023-09-03T11:58:30.403Z,43.86
2023-09-03T12:01:03.432Z,43.94
2023-09-03T12:03:39.914Z,42.98
2023-09-03T12:06:13.008Z,43.53
2023-09-03T12:08:46.672Z,43.36
2023-09-03T12:11:19.788Z,44.43
2023-09-03T12:13:59.896Z,43.75
2023-09-03T12:16:46.516Z,42.77
2023-09-03T12:19:20.989Z,43.58
2023-09-03T12:21:56.130Z,43.28
2023-09-03T12:24:30.274Z,42.35
2023-09-03T12:27:05.040Z,42.87
2023-09-03T12:29:52.359Z,42.80
2023-09-03T12:32:37.100Z,42.73
2023-09-03T12:35:17.704Z,41.77
2023-09-03T12:37:50.614Z,40.74
2023-09-03T12:40:23.766Z,42.33
2023-09-03T12:42:57.191Z,42.48
2023-09-03T12:45:30.549Z,41.73
2023-09-03T12:48:03.580Z,42.98
2023-09-03T12:50:37.849Z,40.88
2023-09-03T12:53:10.890Z,40.78
2023-09-03T12:55:43.824Z,40.49
2023-09-03T12:58:16.903Z,41.92
2023-09-03T13:00:50.384Z,41.51
2023-09-03T13:03:23.399Z,41.87
2023-09-03T13:05:58.614Z,42.01
2023-09-03T13:08:33.292Z,41.67
2023-09-03T13:11:06.244Z,41.14
2023-09-03T13:13:39.155Z,39.75
2023-09-03T13:16:12.013Z,40.62
2023-09-03T13:18:46.332Z,39.65
2023-09-03T13:21:21.459Z,40.78
2023-09-03T13:23:54.191Z,40.64
2023-09-03T13:26:27.034Z,40.78
2023-09-03T13:28:59.860Z,40.76
2023-09-03T13:31:32.923Z,40.80
2023-09-03T13:34:07.601Z,39.99
2023-09-03T13:36:41.833Z,41.37
2023-09-03T13:39:14.619Z,40.79
2023-09-03T13:41:49.580Z,39.12
2023-09-03T13:44:22.498Z,39.60
2023-09-03T13:46:55.209Z,39.56
2023-09-03T13:49:28.234Z,41.02
2023-09-03T13:52:02.406Z,40.07
2023-09-03T13:54:35.128Z,40.55
2023-09-03T13:57:07.818Z,40.61
2023-09-03T13:59:40.722Z,40.88
2023-09-03T14:02:13.610Z,41.22
2023-09-03T14:04:48.870Z,40.40
2023-09-03T14:07:23.559Z,40.08
2023-09-03T14:09:56.895Z,39.45
2023-09-03T14:12:29.732Z,39.90
2023-09-03T14:15:02.519Z,36.54
2023-09-03T14:17:35.835Z,38.73
2023-09-03T14:20:10.051Z,39.15
2023-09-03T14:22:44.703Z,38.70
2023-09-03T14:25:17.591Z,39.93
2023-09-03T14:27:50.867Z,38.03
2023-09-03T14:30:23.637Z,38.78
2023-09-03T14:32:56.821Z,38.14
2023-09-03T14:35:30.033Z,38.01
2023-09-03T14:38:04.172Z,38.53
2023-09-03T14:40:36.983Z,36.18
2023-09-03T14:43:09.845Z,34.61
2023-09-03T14:45:43.131Z,36.34
2023-09-03T14:48:15.853Z,37.56
2023-09-03T14:50:51.520Z,36.08
2023-09-03T14:53:26.036Z,35.88
2023-09-03T14:56:00.375Z,34.98
2023-09-03T14:58:33.283Z,37.81
2023-09-03T15:01:14.922Z,38.14
2023-09-03T15:03:49.809Z,37.69
2023-09-03T15:06:23.824Z,38.28
2023-09-03T15:08:57.904Z,38.34
2023-09-03T15:11:30.978Z,38.58
2023-09-03T15:14:04.269Z,38.99
2023-09-03T15:16:37.151Z,38.68
2023-09-03T15:19:10.057Z,38.38
2023-09-03T15:21:44.572Z,38.62
2023-09-03T15:24:19.390Z,37.02
2023-09-03T15:26:52.228Z,37.83
2023-09-03T15:29:24.910Z,32.20
2023-09-03T15:31:57.778Z,36.87
2023-09-03T15:34:30.506Z,33.47
2023-09-03T15:37:03.333Z,35.41
2023-09-03T15:39:37.769Z,30.48
2023-09-03T15:42:10.422Z,35.14
2023-09-03T15:44:46.005Z,32.59
2023-09-03T15:47:18.764Z,31.66
2023-09-03T15:49:52.571Z,33.96
2023-09-03T15:52:25.340Z,34.06
2023-09-03T15:55:00.011Z,33.11
2023-09-03T15:57:32.902Z,33.37
2023-09-03T16:00:06.902Z,32.59
2023-09-03T16:02:41.432Z,33.59
2023-09-03T16:05:14.279Z,33.06
2023-09-03T16:07:48.094Z,32.37
2023-09-03T16:10:23.033Z,34.01
2023-09-03T16:13:01.495Z,33.63
2023-09-03T16:15:34.210Z,32.84
2023-09-03T16:18:07.581Z,33.54
2023-09-03T16:20:40.417Z,33.80
2023-09-03T16:23:13.194Z,33.07
2023-09-03T16:25:48.997Z,32.79
2023-09-03T16:28:22.095Z,33.57
2023-09-03T16:30:59.016Z,33.91
2023-09-03T16:33:32.259Z,34.21
2023-09-03T16:36:05.735Z,33.83
2023-09-03T16:38:38.536Z,34.05
2023-09-03T16:41:13.051Z,34.01
2023-09-03T16:43:45.826Z,34.07
2023-09-03T16:48:52.569Z,34.39
2023-09-03T16:51:27.633Z,34.15
2023-09-03T16:54:00.526Z,34.63
2023-09-03T16:56:34.694Z,34.54
2023-09-03T16:59:07.571Z,34.46
2023-09-03T17:01:40.630Z,34.90
2023-09-03T17:04:13.727Z,35.12
2023-09-03T17:06:46.610Z,35.12
2023-09-03T17:09:31.408Z,35.15
2023-09-03T17:12:06.770Z,35.66
2023-09-03T17:14:39.445Z,35.75
2023-09-03T17:17:13.230Z,36.50
2023-09-03T17:19:45.905Z,36.39
2023-09-03T17:22:19.052Z,36.32
2023-09-03T17:24:51.846Z,36.38
2023-09-03T17:27:26.174Z,36.94
2023-09-03T17:30:01.751Z,36.88
2023-09-03T17:32:34.661Z,36.93
2023-09-03T17:35:07.825Z,37.28
2023-09-03T17:37:41.086Z,37.29
2023-09-03T17:40:14.638Z,37.73
2023-09-03T17:42:49.083Z,37.35
2023-09-03T17:45:21.850Z,36.94
2023-09-03T17:47:54.508Z,37.56
2023-09-03T17:50:27.256Z,37.85
2023-09-03T17:53:00.064Z,37.71
2023-09-03T17:55:32.672Z,38.22
2023-09-03T17:58:14.213Z,38.46
2023-09-03T18:00:47.121Z,38.43
2023-09-03T18:03:19.970Z,38.18
2023-09-03T18:05:54.263Z,37.92
2023-09-03T18:08:27.564Z,38.04
2023-09-03T18:11:00.539Z,38.28
2023-09-03T18:13:34.657Z,38.22
2023-09-03T18:16:07.556Z,38.63
2023-09-03T18:18:40.416Z,38.62
2023-09-03T18:21:15.552Z,38.80
2023-09-03T18:23:50.172Z,39.18
2023-09-03T18:26:23.973Z,39.21
2023-09-03T18:28:59.095Z,39.20
2023-09-03T18:31:31.822Z,39.44
2023-09-03T18:34:04.659Z,39.20
2023-09-03T18:36:37.563Z,39.76
2023-09-03T18:39:10.585Z,39.92
2023-09-03T18:41:43.518Z,40.10
2023-09-03T18:44:18.084Z,40.13
2023-09-03T18:46:51.056Z,40.36
2023-09-03T18:49:23.855Z,40.26
2023-09-03T18:51:58.596Z,40.27
2023-09-03T18:54:32.918Z,40.35
2023-09-03T18:57:06.379Z,40.30
2023-09-03T18:59:40.438Z,40.30
2023-09-03T19:02:13.620Z,40.57
2023-09-03T19:04:47.596Z,40.85
2023-09-03T19:07:20.341Z,40.99
2023-09-03T19:13:06.079Z,41.13
2023-09-03T19:15:44.106Z,41.22
2023-09-03T19:18:18.245Z,41.10
2023-09-03T19:20:53.076Z,41.20
2023-09-03T19:23:26.163Z,41.24
2023-09-03T19:32:09.155Z,41.65
2023-09-03T19:37:28.025Z,41.51
2023-09-03T19:40:00.650Z,41.49
2023-09-03T19:42:51.318Z,41.81
2023-09-03T19:45:25.617Z,41.89
2023-09-03T19:48:13.073Z,41.73
2023-09-03T19:50:47.467Z,42.00
2023-09-03T19:53:20.290Z,42.16
2023-09-03T19:55:53.298Z,42.12
2023-09-03T19:58:26.299Z,42.39
